sensor_id;sensor_type;location;lat;lon;timestamp;pressure;altitude;pressure_sealevel;temperature;humidity
13709;BME280;54933;51.908;7.730;2023-02-28T00:01:27;102431.31;;;21.12;60.19
13709;BME280;54933;51.908;7.730;2023-02-28T00:03:52;102435.88;;;21.12;60.04
13709;BME280;54933;51.908;7.730;2023-02-28T00:06:18;102435.88;;;21.12;59.97
13709;BME280;54933;51.908;7.730;2023-02-28T00:08:43;102436.91;;;21.11;60.44
13709;BME280;54933;51.908;7.730;2023-02-28T00:11:11;102436.72;;;21.12;60.04
13709;BME280;54933;51.908;7.730;2023-02-28T00:13:40;102442.13;;;21.12;60.02
13709;BME280;54933;51.908;7.730;2023-02-28T00:16:09;102435.03;;;21.11;59.87
13709;BME280;54933;51.908;7.730;2023-02-28T00:18:35;102445.84;;;21.11;60.02
13709;BME280;54933;51.908;7.730;2023-02-28T00:21:00;102433.34;;;21.10;59.97
13709;BME280;54933;51.908;7.730;2023-02-28T00:23:27;102445.84;;;21.11;59.90
13709;BME280;54933;51.908;7.730;2023-02-28T00:25:52;102436.91;;;21.11;60.05
13709;BME280;54933;51.908;7.730;2023-02-28T00:28:19;102440.44;;;21.11;59.94
13709;BME280;54933;51.908;7.730;2023-02-28T00:30:45;102431.69;;;21.09;59.81
13709;BME280;54933;51.908;7.730;2023-02-28T00:33:11;102434.38;;;21.09;60.13
13709;BME280;54933;51.908;7.730;2023-02-28T00:35:36;102437.91;;;21.10;59.92
13709;BME280;54933;51.908;7.730;2023-02-28T00:38:01;102433.34;;;21.10;59.91
13709;BME280;54933;51.908;7.730;2023-02-28T00:40:27;102430.81;;;21.09;60.11
13709;BME280;54933;51.908;7.730;2023-02-28T00:42:52;102437.09;;;21.09;60.23
13709;BME280;54933;51.908;7.730;2023-02-28T00:45:17;102427.28;;;21.08;60.00
13709;BME280;54933;51.908;7.730;2023-02-28T00:47:43;102431.69;;;21.09;59.98
13709;BME280;54933;51.908;7.730;2023-02-28T00:50:09;102437.09;;;21.09;59.95
13709;BME280;54933;51.908;7.730;2023-02-28T00:52:34;102429.16;;;21.08;60.05
13709;BME280;54933;51.908;7.730;2023-02-28T00:54:59;102429.16;;;21.08;60.01
13709;BME280;54933;51.908;7.730;2023-02-28T00:57:25;102429.97;;;21.08;59.84
13709;BME280;54933;51.908;7.730;2023-02-28T00:59:51;102429.97;;;21.08;59.73
13709;BME280;54933;51.908;7.730;2023-02-28T01:02:19;102435.38;;;21.08;59.92
13709;BME280;54933;51.908;7.730;2023-02-28T01:04:45;102431.00;;;21.07;60.03
13709;BME280;54933;51.908;7.730;2023-02-28T01:07:10;102422.91;;;21.07;59.75
13709;BME280;54933;51.908;7.730;2023-02-28T01:09:36;102430.16;;;21.07;59.89
13709;BME280;54933;51.908;7.730;2023-02-28T01:12:01;102425.59;;;21.07;59.89
13709;BME280;54933;51.908;7.730;2023-02-28T01:14:26;102427.44;;;21.07;60.01
13709;BME280;54933;51.908;7.730;2023-02-28T01:16:51;102420.38;;;21.06;59.94
13709;BME280;54933;51.908;7.730;2023-02-28T01:19:17;102423.91;;;21.06;59.87
13709;BME280;54933;51.908;7.730;2023-02-28T01:21:42;102422.03;;;21.07;59.66
13709;BME280;54933;51.908;7.730;2023-02-28T01:24:07;102417.50;;;21.07;60.08
13709;BME280;54933;51.908;7.730;2023-02-28T01:26:33;102420.38;;;21.06;59.89
13709;BME280;54933;51.908;7.730;2023-02-28T01:28:58;102409.56;;;21.06;59.99
13709;BME280;54933;51.908;7.730;2023-02-28T01:31:23;102414.97;;;21.06;60.10
13709;BME280;54933;51.908;7.730;2023-02-28T01:33:49;102415.78;;;21.06;59.92
13709;BME280;54933;51.908;7.730;2023-02-28T01:36:19;102419.53;;;21.05;59.92
13709;BME280;54933;51.908;7.730;2023-02-28T01:38:45;102419.53;;;21.05;59.91
13709;BME280;54933;51.908;7.730;2023-02-28T01:41:26;102419.53;;;21.05;60.04
13709;BME280;54933;51.908;7.730;2023-02-28T01:46:56;102417.84;;;21.04;59.91
13709;BME280;54933;51.908;7.730;2023-02-28T01:49:21;102420.56;;;21.04;59.64
13709;BME280;54933;51.908;7.730;2023-02-28T01:51:50;102417.00;;;21.04;59.85
13709;BME280;54933;51.908;7.730;2023-02-28T01:54:22;102406.19;;;21.04;59.87
13709;BME280;54933;51.908;7.730;2023-02-28T01:56:54;102410.56;;;21.05;59.78
13709;BME280;54933;51.908;7.730;2023-02-28T01:59:26;102414.31;;;21.04;60.02
13709;BME280;54933;51.908;7.730;2023-02-28T02:01:53;102414.31;;;21.04;59.80
13709;BME280;54933;51.908;7.730;2023-02-28T02:04:19;102415.31;;;21.03;59.83
13709;BME280;54933;51.908;7.730;2023-02-28T02:06:47;102402.63;;;21.03;59.55
13709;BME280;54933;51.908;7.730;2023-02-28T02:09:13;102415.31;;;21.03;59.80
13709;BME280;54933;51.908;7.730;2023-02-28T02:11:40;102409.94;;;21.03;59.70
13709;BME280;54933;51.908;7.730;2023-02-28T02:19:16;102412.63;;;21.03;60.06
13709;BME280;54933;51.908;7.730;2023-02-28T02:24:34;102403.66;;;21.02;59.72
13709;BME280;54933;51.908;7.730;2023-02-28T02:27:38;102403.66;;;21.02;59.75
13709;BME280;54933;51.908;7.730;2023-02-28T02:33:02;102415.50;;;21.01;59.78
13709;BME280;54933;51.908;7.730;2023-02-28T02:35:43;102403.84;;;21.01;59.89
13709;BME280;54933;51.908;7.730;2023-02-28T02:40:57;102407.41;;;21.01;60.00
13709;BME280;54933;51.908;7.730;2023-02-28T02:43:30;102404.84;;;21.00;59.88
13709;BME280;54933;51.908;7.730;2023-02-28T02:46:08;102407.41;;;21.01;59.97
13709;BME280;54933;51.908;7.730;2023-02-28T02:48:39;102400.28;;;21.00;59.77
13709;BME280;54933;51.908;7.730;2023-02-28T02:51:13;102411.94;;;21.01;59.97
13709;BME280;54933;51.908;7.730;2023-02-28T02:53:53;102415.66;;;21.00;59.73
13709;BME280;54933;51.908;7.730;2023-02-28T02:56:23;102414.84;;;20.99;59.92
13709;BME280;54933;51.908;7.730;2023-02-28T02:58:52;102410.25;;;21.00;59.89
13709;BME280;54933;51.908;7.730;2023-02-28T03:01:21;102414.84;;;20.99;59.77
13709;BME280;54933;51.908;7.730;2023-02-28T03:04:00;102419.22;;;21.00;59.95
13709;BME280;54933;51.908;7.730;2023-02-28T03:06:27;102414.84;;;20.99;59.90
13709;BME280;54933;51.908;7.730;2023-02-28T03:08:53;102419.38;;;20.99;60.10
13709;BME280;54933;51.908;7.730;2023-02-28T03:11:19;102414.84;;;20.99;59.70
13709;BME280;54933;51.908;7.730;2023-02-28T03:14:07;102413.13;;;20.98;59.92
13709;BME280;54933;51.908;7.730;2023-02-28T03:17:02;102419.38;;;20.99;59.67
13709;BME280;54933;51.908;7.730;2023-02-28T03:22:43;102418.53;;;20.98;59.87
13709;BME280;54933;51.908;7.730;2023-02-28T03:25:27;102418.53;;;20.98;59.77
13709;BME280;54933;51.908;7.730;2023-02-28T03:28:31;102410.44;;;20.98;59.64
13709;BME280;54933;51.908;7.730;2023-02-28T03:31:07;102418.72;;;20.97;59.58
13709;BME280;54933;51.908;7.730;2023-02-28T03:34:01;102414.16;;;20.97;59.81
13709;BME280;54933;51.908;7.730;2023-02-28T03:36:30;102424.97;;;20.97;59.71
13709;BME280;54933;51.908;7.730;2023-02-28T03:39:02;102412.47;;;20.96;59.57
13709;BME280;54933;51.908;7.730;2023-02-28T03:41:55;102421.41;;;20.97;59.92
13709;BME280;54933;51.908;7.730;2023-02-28T03:44:32;102406.19;;;20.96;59.85
13709;BME280;54933;51.908;7.730;2023-02-28T03:47:03;102416.88;;;20.97;59.63
13709;BME280;54933;51.908;7.730;2023-02-28T03:49:37;102413.47;;;20.95;59.82
13709;BME280;54933;51.908;7.730;2023-02-28T03:52:08;102415.16;;;20.96;59.93
13709;BME280;54933;51.908;7.730;2023-02-28T03:54:40;102418.72;;;20.97;59.85
13709;BME280;54933;51.908;7.730;2023-02-28T03:57:15;102415.16;;;20.96;60.29
13709;BME280;54933;51.908;7.730;2023-02-28T03:59:47;102420.56;;;20.96;60.10
13709;BME280;54933;51.908;7.730;2023-02-28T04:02:14;102425.13;;;20.96;59.72
13709;BME280;54933;51.908;7.730;2023-02-28T04:04:40;102425.13;;;20.96;59.96
13709;BME280;54933;51.908;7.730;2023-02-28T04:07:11;102431.38;;;20.96;59.78
13709;BME280;54933;51.908;7.730;2023-02-28T04:09:36;102426.97;;;20.95;60.03
13709;BME280;54933;51.908;7.730;2023-02-28T04:12:02;102425.13;;;20.96;59.55
13709;BME280;54933;51.908;7.730;2023-02-28T04:14:27;102432.22;;;20.97;59.81
13709;BME280;54933;51.908;7.730;2023-02-28T04:16:52;102431.38;;;20.96;59.85
13709;BME280;54933;51.908;7.730;2023-02-28T04:19:18;102425.13;;;20.96;59.76
13709;BME280;54933;51.908;7.730;2023-02-28T04:21:46;102429.66;;;20.95;59.65
13709;BME280;54933;51.908;7.730;2023-02-28T04:24:18;102421.56;;;20.95;59.65
13709;BME280;54933;51.908;7.730;2023-02-28T04:26:45;102423.44;;;20.95;59.75
13709;BME280;54933;51.908;7.730;2023-02-28T04:29:14;102423.44;;;20.95;59.70
13709;BME280;54933;51.908;7.730;2023-02-28T04:31:39;102426.16;;;20.95;59.48
13709;BME280;54933;51.908;7.730;2023-02-28T04:34:05;102428.00;;;20.94;59.81
13709;BME280;54933;51.908;7.730;2023-02-28T04:36:31;102418.03;;;20.95;59.67
13709;BME280;54933;51.908;7.730;2023-02-28T04:38:56;102419.88;;;20.94;59.63
13709;BME280;54933;51.908;7.730;2023-02-28T04:41:22;102428.00;;;20.94;59.61
13709;BME280;54933;51.908;7.730;2023-02-28T04:43:48;102425.28;;;20.94;59.50
13709;BME280;54933;51.908;7.730;2023-02-28T04:46:13;102422.59;;;20.94;59.97
13709;BME280;54933;51.908;7.730;2023-02-28T04:48:39;102428.00;;;20.94;59.62
13709;BME280;54933;51.908;7.730;2023-02-28T04:51:07;102425.28;;;20.94;59.65
13709;BME280;54933;51.908;7.730;2023-02-28T04:53:33;102436.97;;;20.95;59.71
13709;BME280;54933;51.908;7.730;2023-02-28T04:55:59;102428.00;;;20.94;59.79
13709;BME280;54933;51.908;7.730;2023-02-28T04:58:25;102428.84;;;20.95;59.73
13709;BME280;54933;51.908;7.730;2023-02-28T05:00:51;102426.81;;;20.97;59.75
13709;BME280;54933;51.908;7.730;2023-02-28T05:03:17;102425.81;;;20.98;59.70
13709;BME280;54933;51.908;7.730;2023-02-28T05:05:42;102429.34;;;20.98;59.66
13709;BME280;54933;51.908;7.730;2023-02-28T05:08:08;102426.66;;;20.98;59.71
13709;BME280;54933;51.908;7.730;2023-02-28T05:10:34;102436.47;;;20.99;59.81
13709;BME280;54933;51.908;7.730;2023-02-28T05:12:59;102431.06;;;20.99;59.50
13709;BME280;54933;51.908;7.730;2023-02-28T05:15:25;102432.72;;;21.00;59.55
13709;BME280;54933;51.908;7.730;2023-02-28T05:17:50;102430.03;;;21.00;59.58
13709;BME280;54933;51.908;7.730;2023-02-28T05:20:16;102430.19;;;20.99;59.51
13709;BME280;54933;51.908;7.730;2023-02-28T05:22:42;102439.16;;;20.99;59.57
13709;BME280;54933;51.908;7.730;2023-02-28T05:25:19;102435.59;;;20.99;59.17
13709;BME280;54933;51.908;7.730;2023-02-28T05:27:46;102433.75;;;20.99;59.60
13709;BME280;54933;51.908;7.730;2023-02-28T05:30:11;102434.75;;;20.98;59.50
13709;BME280;54933;51.908;7.730;2023-02-28T05:32:38;102433.09;;;20.97;59.75
13709;BME280;54933;51.908;7.730;2023-02-28T05:35:07;102437.44;;;20.98;59.80
13709;BME280;54933;51.908;7.730;2023-02-28T05:37:33;102444.56;;;20.99;59.89
13709;BME280;54933;51.908;7.730;2023-02-28T05:39:58;102443.88;;;20.97;59.89
13709;BME280;54933;51.908;7.730;2023-02-28T05:42:24;102442.19;;;20.96;59.95
13709;BME280;54933;51.908;7.730;2023-02-28T05:44:49;102443.88;;;20.97;60.14
13709;BME280;54933;51.908;7.730;2023-02-28T05:47:15;102444.88;;;20.96;59.96
13709;BME280;54933;51.908;7.730;2023-02-28T05:49:41;102442.19;;;20.96;60.34
13709;BME280;54933;51.908;7.730;2023-02-28T05:52:07;102443.88;;;20.97;60.19
13709;BME280;54933;51.908;7.730;2023-02-28T05:54:33;102447.59;;;20.96;60.21
13709;BME280;54933;51.908;7.730;2023-02-28T05:56:58;102442.22;;;20.88;59.77
13709;BME280;54933;51.908;7.730;2023-02-28T05:59:23;102447.63;;;20.88;59.33
13709;BME280;54933;51.908;7.730;2023-02-28T06:01:49;102444.94;;;20.88;59.40
13709;BME280;54933;51.908;7.730;2023-02-28T06:04:16;102456.56;;;20.89;59.33
13709;BME280;54933;51.908;7.730;2023-02-28T06:06:47;102450.22;;;20.66;59.12
13709;BME280;54933;51.908;7.730;2023-02-28T06:09:13;102439.34;;;20.11;55.14
13709;BME280;54933;51.908;7.730;2023-02-28T06:11:38;102445.25;;;20.31;54.25
13709;BME280;54933;51.908;7.730;2023-02-28T06:14:04;102449.94;;;20.45;54.64
13709;BME280;54933;51.908;7.730;2023-02-28T06:16:31;102450.59;;;20.55;55.23
13709;BME280;54933;51.908;7.730;2023-02-28T06:18:58;102458.84;;;20.61;55.86
13709;BME280;54933;51.908;7.730;2023-02-28T06:21:24;102451.06;;;20.66;56.54
13709;BME280;54933;51.908;7.730;2023-02-28T06:23:49;102466.09;;;20.69;57.08
13709;BME280;54933;51.908;7.730;2023-02-28T06:26:15;102459.50;;;20.71;57.30
13709;BME280;54933;51.908;7.730;2023-02-28T06:28:40;102458.28;;;20.74;57.64
13709;BME280;54933;51.908;7.730;2023-02-28T06:31:08;102463.56;;;20.75;58.02
13709;BME280;54933;51.908;7.730;2023-02-28T06:33:33;102457.13;;;20.76;58.37
13709;BME280;54933;51.908;7.730;2023-02-28T06:35:59;102458.78;;;20.77;58.46
13709;BME280;54933;51.908;7.730;2023-02-28T06:38:24;102446.50;;;20.75;58.77
13709;BME280;54933;51.908;7.730;2023-02-28T06:40:54;102465.22;;;20.76;58.47
13709;BME280;54933;51.908;7.730;2023-02-28T06:43:19;102465.03;;;20.78;58.71
13709;BME280;54933;51.908;7.730;2023-02-28T06:45:45;102461.31;;;20.79;59.07
13709;BME280;54933;51.908;7.730;2023-02-28T06:48:10;102463.03;;;20.80;59.10
13709;BME280;54933;51.908;7.730;2023-02-28T06:50:36;102467.41;;;20.81;59.38
13709;BME280;54933;51.908;7.730;2023-02-28T06:53:01;102466.41;;;20.82;59.59
13709;BME280;54933;51.908;7.730;2023-02-28T06:55:26;102465.53;;;20.81;59.43
13709;BME280;54933;51.908;7.730;2023-02-28T06:57:52;102469.09;;;20.82;59.72
13709;BME280;54933;51.908;7.730;2023-02-28T07:00:17;102472.63;;;20.82;59.70
13709;BME280;54933;51.908;7.730;2023-02-28T07:02:42;102469.09;;;20.82;59.77
13709;BME280;54933;51.908;7.730;2023-02-28T07:05:08;102468.25;;;20.81;59.68
13709;BME280;54933;51.908;7.730;2023-02-28T07:07:33;102478.88;;;20.83;59.84
13709;BME280;54933;51.908;7.730;2023-02-28T07:10:01;102478.03;;;20.82;59.79
13709;BME280;54933;51.908;7.730;2023-02-28T07:12:26;102478.03;;;20.82;59.85
13709;BME280;54933;51.908;7.730;2023-02-28T07:14:52;102478.03;;;20.82;59.70
13709;BME280;54933;51.908;7.730;2023-02-28T07:17:17;102484.28;;;20.83;59.80
13709;BME280;54933;51.908;7.730;2023-02-28T07:19:42;102490.53;;;20.83;59.70
13709;BME280;54933;51.908;7.730;2023-02-28T07:22:07;102488.84;;;20.82;59.85
13709;BME280;54933;51.908;7.730;2023-02-28T07:24:33;102487.84;;;20.83;59.88
13709;BME280;54933;51.908;7.730;2023-02-28T07:26:58;102482.94;;;20.79;59.59
13709;BME280;54933;51.908;7.730;2023-02-28T07:29:24;102490.84;;;20.80;59.39
13709;BME280;54933;51.908;7.730;2023-02-28T07:31:50;102497.13;;;20.81;59.36
13709;BME280;54933;51.908;7.730;2023-02-28T07:34:18;102497.97;;;20.81;59.48
13709;BME280;54933;51.908;7.730;2023-02-28T07:36:43;102496.94;;;20.82;59.50
13709;BME280;54933;51.908;7.730;2023-02-28T07:39:08;102499.63;;;20.82;59.69
13709;BME280;54933;51.908;7.730;2023-02-28T07:41:34;102494.22;;;20.82;59.68
13709;BME280;54933;51.908;7.730;2023-02-28T07:44:02;102498.00;;;20.73;59.27
13709;BME280;54933;51.908;7.730;2023-02-28T07:46:28;102495.97;;;20.75;58.94
13709;BME280;54933;51.908;7.730;2023-02-28T07:48:54;102499.31;;;20.77;59.04
13709;BME280;54933;51.908;7.730;2023-02-28T07:51:24;102504.53;;;20.79;59.14
13709;BME280;54933;51.908;7.730;2023-02-28T07:53:49;102507.06;;;20.80;59.36
13709;BME280;54933;51.908;7.730;2023-02-28T07:56:14;102505.03;;;20.82;59.21
13709;BME280;54933;51.908;7.730;2023-02-28T07:58:40;102498.66;;;20.83;59.75
13709;BME280;54933;51.908;7.730;2023-02-28T08:01:09;102499.28;;;20.85;59.71
13709;BME280;54933;51.908;7.730;2023-02-28T08:03:36;102495.59;;;20.86;59.64
13709;BME280;54933;51.908;7.730;2023-02-28T08:06:03;102505.53;;;20.86;59.78
13709;BME280;54933;51.908;7.730;2023-02-28T08:08:29;102498.28;;;20.86;59.95
13709;BME280;54933;51.908;7.730;2023-02-28T08:11:01;102502.66;;;20.87;59.78
13709;BME280;54933;51.908;7.730;2023-02-28T08:13:27;102502.66;;;20.87;59.97
13709;BME280;54933;51.908;7.730;2023-02-28T08:15:56;102509.78;;;20.88;59.98
13709;BME280;54933;51.908;7.730;2023-02-28T08:18:22;102504.38;;;20.88;59.96
13709;BME280;54933;51.908;7.730;2023-02-28T08:20:48;102513.47;;;20.87;60.14
13709;BME280;54933;51.908;7.730;2023-02-28T08:23:13;102508.75;;;20.89;60.09
13709;BME280;54933;51.908;7.730;2023-02-28T08:25:39;102508.75;;;20.89;60.05
13709;BME280;54933;51.908;7.730;2023-02-28T08:28:04;102505.19;;;20.89;60.23
13709;BME280;54933;51.908;7.730;2023-02-28T08:30:29;102505.19;;;20.89;60.11
13709;BME280;54933;51.908;7.730;2023-02-28T08:32:55;102503.34;;;20.89;59.91
13709;BME280;54933;51.908;7.730;2023-02-28T08:35:20;102500.63;;;20.89;60.24
13709;BME280;54933;51.908;7.730;2023-02-28T08:37:49;102507.72;;;20.90;60.16
13709;BME280;54933;51.908;7.730;2023-02-28T08:40:15;102511.44;;;20.89;59.96
13709;BME280;54933;51.908;7.730;2023-02-28T08:42:44;102508.75;;;20.89;60.25
13709;BME280;54933;51.908;7.730;2023-02-28T08:45:10;102508.75;;;20.89;60.00
13709;BME280;54933;51.908;7.730;2023-02-28T08:47:35;102510.59;;;20.89;60.33
13709;BME280;54933;51.908;7.730;2023-02-28T08:50:01;102514.16;;;20.89;59.91
13709;BME280;54933;51.908;7.730;2023-02-28T08:52:26;102514.81;;;20.91;60.10
13709;BME280;54933;51.908;7.730;2023-02-28T08:54:51;102509.41;;;20.91;59.95
13709;BME280;54933;51.908;7.730;2023-02-28T08:59:42;102511.09;;;20.92;60.25
13709;BME280;54933;51.908;7.730;2023-02-28T09:02:08;102513.81;;;20.92;60.11
13709;BME280;54933;51.908;7.730;2023-02-28T09:04:35;102507.38;;;20.93;60.20
13709;BME280;54933;51.908;7.730;2023-02-28T09:07:00;102514.47;;;20.94;60.23
13709;BME280;54933;51.908;7.730;2023-02-28T09:09:25;102512.78;;;20.93;60.26
13709;BME280;54933;51.908;7.730;2023-02-28T09:11:51;102517.19;;;20.94;60.08
13709;BME280;54933;51.908;7.730;2023-02-28T09:14:16;102512.63;;;20.95;60.41
13709;BME280;54933;51.908;7.730;2023-02-28T09:16:42;102509.91;;;20.95;60.14
13709;BME280;54933;51.908;7.730;2023-02-28T09:19:10;102514.47;;;20.94;60.30
13709;BME280;54933;51.908;7.730;2023-02-28T09:21:36;102502.63;;;20.95;60.28
13709;BME280;54933;51.908;7.730;2023-02-28T09:24:01;102506.38;;;20.94;60.25
13709;BME280;54933;51.908;7.730;2023-02-28T09:26:27;102501.81;;;20.95;60.26
13709;BME280;54933;51.908;7.730;2023-02-28T09:28:53;102501.81;;;20.95;60.14
13709;BME280;54933;51.908;7.730;2023-02-28T09:31:24;102498.25;;;20.94;60.08
13709;BME280;54933;51.908;7.730;2023-02-28T09:33:51;102489.13;;;20.95;60.14
13709;BME280;54933;51.908;7.730;2023-02-28T09:36:18;102494.53;;;20.95;60.23
13709;BME280;54933;51.908;7.730;2023-02-28T09:38:44;102504.53;;;20.95;60.03
13709;BME280;54933;51.908;7.730;2023-02-28T09:41:16;102499.94;;;20.95;60.27
13709;BME280;54933;51.908;7.730;2023-02-28T09:43:45;102505.34;;;20.95;60.31
13709;BME280;54933;51.908;7.730;2023-02-28T09:46:28;102505.34;;;20.95;60.32
13709;BME280;54933;51.908;7.730;2023-02-28T09:48:55;102499.13;;;20.95;60.33
13709;BME280;54933;51.908;7.730;2023-02-28T09:54:16;102505.34;;;20.95;60.05
13709;BME280;54933;51.908;7.730;2023-02-28T09:56:51;102506.19;;;20.96;60.04
13709;BME280;54933;51.908;7.730;2023-02-28T10:04:46;102501.63;;;20.96;60.13
13709;BME280;54933;51.908;7.730;2023-02-28T10:07:21;102493.72;;;20.95;60.17
13709;BME280;54933;51.908;7.730;2023-02-28T10:09:52;102501.63;;;20.96;60.00
13709;BME280;54933;51.908;7.730;2023-02-28T10:12:19;102499.94;;;20.95;60.13
13709;BME280;54933;51.908;7.730;2023-02-28T10:14:47;102503.50;;;20.96;59.99
13709;BME280;54933;51.908;7.730;2023-02-28T10:17:17;102490.81;;;20.96;59.95
13709;BME280;54933;51.908;7.730;2023-02-28T10:20:00;102498.09;;;20.96;59.95
13709;BME280;54933;51.908;7.730;2023-02-28T10:22:34;102497.09;;;20.97;59.96
13709;BME280;54933;51.908;7.730;2023-02-28T10:25:05;102494.38;;;20.97;59.91
13709;BME280;54933;51.908;7.730;2023-02-28T10:27:40;102498.94;;;20.96;60.08
13709;BME280;54933;51.908;7.730;2023-02-28T10:30:05;102498.94;;;20.96;60.00
13709;BME280;54933;51.908;7.730;2023-02-28T10:32:33;102490.81;;;20.96;60.28
13709;BME280;54933;51.908;7.730;2023-02-28T10:35:10;102496.22;;;20.96;60.19
13709;BME280;54933;51.908;7.730;2023-02-28T10:37:40;102493.53;;;20.96;60.12
13709;BME280;54933;51.908;7.730;2023-02-28T10:40:26;102507.91;;;20.97;60.22
13709;BME280;54933;51.908;7.730;2023-02-28T10:43:03;102497.09;;;20.97;60.24
13709;BME280;54933;51.908;7.730;2023-02-28T10:45:33;102490.81;;;20.96;60.25
13709;BME280;54933;51.908;7.730;2023-02-28T10:48:05;102503.34;;;20.97;60.02
13709;BME280;54933;51.908;7.730;2023-02-28T10:50:37;102495.25;;;20.97;60.22
13709;BME280;54933;51.908;7.730;2023-02-28T10:55:35;102497.09;;;20.97;60.35
13709;BME280;54933;51.908;7.730;2023-02-28T10:58:00;102492.53;;;20.97;60.23
13709;BME280;54933;51.908;7.730;2023-02-28T11:00:32;102493.53;;;20.96;60.41
13709;BME280;54933;51.908;7.730;2023-02-28T11:02:58;102492.53;;;20.97;60.05
13709;BME280;54933;51.908;7.730;2023-02-28T11:05:31;102487.13;;;20.97;60.22
13709;BME280;54933;51.908;7.730;2023-02-28T11:08:15;102481.72;;;20.97;60.03
13709;BME280;54933;51.908;7.730;2023-02-28T11:10:46;102483.41;;;20.98;60.10
13709;BME280;54933;51.908;7.730;2023-02-28T11:13:20;102497.09;;;20.97;60.08
13709;BME280;54933;51.908;7.730;2023-02-28T11:15:53;102495.25;;;20.97;60.14
13709;BME280;54933;51.908;7.730;2023-02-28T11:18:40;102486.28;;;20.97;60.22
13709;BME280;54933;51.908;7.730;2023-02-28T11:21:07;102484.25;;;20.99;60.25
13709;BME280;54933;51.908;7.730;2023-02-28T11:23:35;102478.84;;;20.99;60.09
13709;BME280;54933;51.908;7.730;2023-02-28T11:26:03;102479.69;;;20.99;60.20
13709;BME280;54933;51.908;7.730;2023-02-28T11:28:35;102476.81;;;21.01;60.30
13709;BME280;54933;51.908;7.730;2023-02-28T11:33:42;102470.56;;;21.00;60.58
13709;BME280;54933;51.908;7.730;2023-02-28T11:36:23;102482.22;;;21.01;60.41
13709;BME280;54933;51.908;7.730;2023-02-28T11:38:59;102470.56;;;21.00;60.41
13709;BME280;54933;51.908;7.730;2023-02-28T11:41:52;102477.66;;;21.01;60.66
13709;BME280;54933;51.908;7.730;2023-02-28T11:47:00;102467.84;;;21.00;60.60
13709;BME280;54933;51.908;7.730;2023-02-28T11:50:07;102467.84;;;21.00;60.73
13709;BME280;54933;51.908;7.730;2023-02-28T11:52:47;102465.16;;;21.00;60.74
13709;BME280;54933;51.908;7.730;2023-02-28T11:55:26;102462.63;;;20.99;60.64
13709;BME280;54933;51.908;7.730;2023-02-28T12:09:24;102435.59;;;20.99;60.57
13709;BME280;54933;51.908;7.730;2023-02-28T12:11:56;102441.00;;;20.99;60.86
13709;BME280;54933;51.908;7.730;2023-02-28T12:14:50;102423.94;;;20.98;60.88
13709;BME280;54933;51.908;7.730;2023-02-28T12:20:12;102434.75;;;20.98;60.63
13709;BME280;54933;51.908;7.730;2023-02-28T12:25:41;102430.19;;;20.99;60.65
13709;BME280;54933;51.908;7.730;2023-02-28T12:28:14;102419.56;;;20.97;60.88
13709;BME280;54933;51.908;7.730;2023-02-28T12:33:22;102429.34;;;20.98;60.74
13709;BME280;54933;51.908;7.730;2023-02-28T12:35:54;102421.25;;;20.98;60.72
13709;BME280;54933;51.908;7.730;2023-02-28T12:41:00;102413.97;;;20.99;60.73
13709;BME280;54933;51.908;7.730;2023-02-28T12:43:36;102417.53;;;20.99;60.88
13709;BME280;54933;51.908;7.730;2023-02-28T12:46:09;102408.56;;;20.99;60.78
13709;BME280;54933;51.908;7.730;2023-02-28T12:48:41;102402.31;;;20.98;60.71
13709;BME280;54933;51.908;7.730;2023-02-28T12:51:07;102408.56;;;20.99;60.72
13709;BME280;54933;51.908;7.730;2023-02-28T12:53:47;102395.91;;;20.99;60.57
13709;BME280;54933;51.908;7.730;2023-02-28T12:59:40;102399.63;;;20.98;59.90
13709;BME280;54933;51.908;7.730;2023-02-28T13:10:07;102379.03;;;20.97;60.65
13709;BME280;54933;51.908;7.730;2023-02-28T13:12:33;102379.03;;;20.97;60.65
13709;BME280;54933;51.908;7.730;2023-02-28T13:15:18;102372.59;;;20.98;60.79
13709;BME280;54933;51.908;7.730;2023-02-28T13:17:49;102376.31;;;20.97;60.54
13709;BME280;54933;51.908;7.730;2023-02-28T13:20:18;102362.81;;;20.97;60.51
13709;BME280;54933;51.908;7.730;2023-02-28T13:22:45;102368.22;;;20.97;60.55
13709;BME280;54933;51.908;7.730;2023-02-28T13:27:59;102368.22;;;20.97;60.67
13709;BME280;54933;51.908;7.730;2023-02-28T13:35:48;102360.13;;;20.97;60.46
13709;BME280;54933;51.908;7.730;2023-02-28T13:38:23;102363.66;;;20.98;60.56
13709;BME280;54933;51.908;7.730;2023-02-28T13:40:49;102363.66;;;20.98;60.77
13709;BME280;54933;51.908;7.730;2023-02-28T13:43:17;102357.41;;;20.97;60.60
13709;BME280;54933;51.908;7.730;2023-02-28T13:46:05;102354.72;;;20.97;60.43
13709;BME280;54933;51.908;7.730;2023-02-28T13:48:33;102352.00;;;20.97;60.72
13709;BME280;54933;51.908;7.730;2023-02-28T13:50:58;102352.00;;;20.97;60.67
13709;BME280;54933;51.908;7.730;2023-02-28T13:53:37;102349.31;;;20.97;60.73
13709;BME280;54933;51.908;7.730;2023-02-28T13:56:24;102346.59;;;20.97;60.72
13709;BME280;54933;51.908;7.730;2023-02-28T13:58:55;102359.09;;;20.98;60.50
13709;BME280;54933;51.908;7.730;2023-02-28T14:01:48;102351.00;;;20.90;60.14
13709;BME280;54933;51.908;7.730;2023-02-28T14:07:18;102354.19;;;20.94;60.12
13709;BME280;54933;51.908;7.730;2023-02-28T14:09:57;102346.06;;;20.94;60.03
13709;BME280;54933;51.908;7.730;2023-02-28T14:12:52;102341.53;;;20.94;60.36
13709;BME280;54933;51.908;7.730;2023-02-28T14:15:55;102337.78;;;20.95;60.39
13709;BME280;54933;51.908;7.730;2023-02-28T14:20:53;102341.53;;;20.94;60.26
13709;BME280;54933;51.908;7.730;2023-02-28T14:26:16;102343.19;;;20.95;60.35
13709;BME280;54933;51.908;7.730;2023-02-28T14:29:06;102343.19;;;20.95;60.41
13709;BME280;54933;51.908;7.730;2023-02-28T14:31:44;102337.78;;;20.95;60.28